»·PEaware :: N729MN L52-L88

N729MN :: L52-L88

FLIGHT INFORMATION

Flight Status: Arrived
Operator: Privately registered:
United States
More flights under this callsign
Pilot: Jason C. (22717)
Aircraft: CESSNA 172 SKYHAWK
(C172)
More flights by this aircraft type
Origin: L52 Oceano Co
United States
Destination: L88 New Cuyama
United States
More flights between these airports :: More routes between these airports
Route:
File this flight plan on PilotEdge
Remarks: CAT 1
Altitude:
(Current/Filed)
7,500ft
Speed:
(Current/Filed)
115kts
Departed: 27-Dec-18 01:13 PM
Arrived: 27-Dec-18 01:50 PM
Distance/Time
Traveled:
47nm/0:37
Distance/Time
To Go:
Arrived

Flight Plot

Page will automatically refresh every two minutes.


Map Options




Map Legend


Flown Route
Filed Route
Departure Airport
Arrival Airport
Navaid (VOR, NDB)
Fix

Horizontal Profiles

Position Reports

Time Latitude Longitude Heading Altitude Ground
Speed
27-Dec-18 12:50 35.103552 -120.624284 214 15ft 0kts
27-Dec-18 12:51 35.103552 -120.624284 214 15ft 0kts
27-Dec-18 12:52 35.103552 -120.624283 214 15ft 0kts
27-Dec-18 12:53 35.103552 -120.624284 214 15ft 0kts
27-Dec-18 12:54 35.103552 -120.624283 214 15ft 0kts
27-Dec-18 12:55 35.103552 -120.624284 214 15ft 0kts
27-Dec-18 12:56 35.103552 -120.624284 214 15ft 0kts
27-Dec-18 12:57 35.103552 -120.624284 214 15ft 0kts
27-Dec-18 12:58 35.103552 -120.624284 214 15ft 0kts
27-Dec-18 12:59 35.103552 -120.624284 214 15ft 0kts
27-Dec-18 13:00 35.103552 -120.624284 214 15ft 0kts
27-Dec-18 13:01 35.103552 -120.624284 214 15ft 0kts
27-Dec-18 13:02 35.103552 -120.624284 214 15ft 0kts
27-Dec-18 13:03 35.103552 -120.624284 214 15ft 0kts
27-Dec-18 13:04 35.103552 -120.624284 214 15ft 0kts
27-Dec-18 13:05 35.103552 -120.624284 214 15ft 0kts
27-Dec-18 13:06 35.103552 -120.624284 214 15ft 0kts
27-Dec-18 13:07 35.103552 -120.624284 214 15ft 0kts
27-Dec-18 13:08 35.103552 -120.624284 214 15ft 0kts
27-Dec-18 13:09 35.102283 -120.624179 217 14ft 8kts
27-Dec-18 13:10 35.099563 -120.619422 68 17ft 0kts
27-Dec-18 13:11 35.099714 -120.619190 32 17ft 7kts
27-Dec-18 13:12 35.106983 -120.632284 307 506ft 58kts
27-Dec-18 13:13 35.115005 -120.651343 316 1451ft 71kts
27-Dec-18 13:14 35.120754 -120.632768 101 1985ft 98kts
27-Dec-18 13:15 35.114816 -120.599789 78 2415ft 99kts
27-Dec-18 13:16 35.115832 -120.566911 70 2865ft 95kts
27-Dec-18 13:17 35.116374 -120.534832 90 3372ft 94kts
27-Dec-18 13:18 35.110732 -120.501825 89 3735ft 101kts
27-Dec-18 13:19 35.106059 -120.467960 89 4059ft 106kts
27-Dec-18 13:20 35.113394 -120.435330 35 4051ft 103kts
27-Dec-18 13:21 35.134610 -120.410972 34 4051ft 105kts
27-Dec-18 13:22 35.145817 -120.378589 86 4051ft 120kts
27-Dec-18 13:23 35.121299 -120.350075 133 4048ft 130kts
27-Dec-18 13:24 35.093004 -120.318185 134 3375ft 144kts
27-Dec-18 13:25 35.066034 -120.287587 134 3234ft 124kts
27-Dec-18 13:26 35.050628 -120.252464 92 3245ft 124kts
27-Dec-18 13:27 35.044982 -120.209864 92 3296ft 125kts
27-Dec-18 13:28 35.060962 -120.180369 32 3348ft 104kts
27-Dec-18 13:29 35.081295 -120.156863 65 3375ft 107kts
27-Dec-18 13:30 35.086603 -120.125535 64 4170ft 84kts
27-Dec-18 13:31 35.090102 -120.095079 76 4373ft 109kts
27-Dec-18 13:32 35.087371 -120.073272 97 4384ft 115kts
27-Dec-18 13:33 35.071896 -120.039300 135 4779ft 116kts
27-Dec-18 13:34 35.053618 -120.010230 123 5232ft 106kts
27-Dec-18 13:35 35.039197 -119.978666 119 5323ft 105kts
27-Dec-18 13:36 35.021402 -119.950044 133 5416ft 106kts
27-Dec-18 13:37 35.001385 -119.923487 128 5494ft 102kts
27-Dec-18 13:38 34.985947 -119.896224 120 5020ft 93kts
27-Dec-18 13:39 34.973374 -119.868406 119 4769ft 92kts
27-Dec-18 13:40 34.959424 -119.839188 120 4337ft 104kts
27-Dec-18 13:41 34.945813 -119.808484 109 4025ft 104kts
27-Dec-18 13:42 34.929934 -119.781534 122 3956ft 102kts
27-Dec-18 13:43 34.913083 -119.754255 137 3963ft 100kts
27-Dec-18 13:44 34.896710 -119.728840 125 4134ft 100kts
27-Dec-18 13:45 34.907855 -119.700873 37 3812ft 106kts
27-Dec-18 13:46 34.920732 -119.675220 103 3277ft 96kts
27-Dec-18 13:47 34.927807 -119.660333 321 2893ft 78kts
27-Dec-18 13:48 34.937083 -119.678507 293 2247ft 50kts
27-Dec-18 13:49 34.942161 -119.690890 322 2157ft 15kts
27-Dec-18 13:50 34.943113 -119.690760 201 2155ft 0kts
27-Dec-18 13:51 34.943113 -119.690760 201 2155ft 0kts
27-Dec-18 13:52 34.943062 -119.690785 202 2155ft 4kts
27-Dec-18 13:53 34.942775 -119.690886 200 2155ft 0kts

Navigation Log

Ident Type
Flight plan parsing failed, navigation log unavailable